createdAt,value
2023-02-16T06:45:19.970Z,39.95
2023-02-16T06:47:46.792Z,40.33
2023-02-16T06:50:14.563Z,40.35
2023-02-16T06:52:41.502Z,40.00
2023-02-16T06:55:08.853Z,41.45
2023-02-16T06:57:35.734Z,41.83
2023-02-16T07:00:05.114Z,41.17
2023-02-16T07:02:31.971Z,39.83
2023-02-16T07:04:58.843Z,39.28
2023-02-16T07:07:25.668Z,40.03
2023-02-16T07:09:52.477Z,39.72
2023-02-16T07:12:19.340Z,40.67
2023-02-16T07:14:46.152Z,39.95
2023-02-16T07:17:12.991Z,39.45
2023-02-16T07:19:39.875Z,39.60
2023-02-16T07:22:06.702Z,39.08
2023-02-16T07:24:33.620Z,40.15
2023-02-16T07:27:00.483Z,39.85
2023-02-16T07:29:27.415Z,39.97
2023-02-16T07:31:54.545Z,40.30
2023-02-16T07:34:22.141Z,42.58
2023-02-16T07:36:49.309Z,41.83
2023-02-16T07:39:16.405Z,40.33
2023-02-16T07:41:43.317Z,39.50
2023-02-16T07:44:10.180Z,39.03
2023-02-16T07:46:37.081Z,38.63
2023-02-16T07:49:04.069Z,38.60
2023-02-16T07:51:31.591Z,38.65
2023-02-16T07:54:00.223Z,42.92
2023-02-16T07:56:31.445Z,39.03
2023-02-16T07:59:00.122Z,38.65
2023-02-16T08:01:27.983Z,38.30
2023-02-16T08:03:56.761Z,41.08
2023-02-16T08:06:23.704Z,41.33
2023-02-16T08:08:50.769Z,41.28
2023-02-16T08:11:23.212Z,43.65
2023-02-16T08:13:50.222Z,44.35
2023-02-16T08:16:25.243Z,40.67
2023-02-16T08:21:31.267Z,39.05
2023-02-16T08:24:03.799Z,38.85
2023-02-16T08:26:44.856Z,38.38
2023-02-16T08:29:13.360Z,36.78
2023-02-16T08:31:41.609Z,36.22
2023-02-16T08:34:08.907Z,35.58
2023-02-16T08:36:38.596Z,37.42
2023-02-16T08:39:09.035Z,36.42
2023-02-16T08:41:37.014Z,36.08
2023-02-16T08:44:06.326Z,36.45
2023-02-16T08:46:34.191Z,35.27
2023-02-16T08:49:01.923Z,34.78
2023-02-16T08:51:31.212Z,35.08
2023-02-16T08:54:00.273Z,35.78
2023-02-16T08:56:29.728Z,33.03
2023-02-16T08:58:57.738Z,33.45
2023-02-16T09:01:24.898Z,33.95
2023-02-16T09:03:52.655Z,33.72
2023-02-16T09:06:21.538Z,34.13
2023-02-16T09:08:56.968Z,32.58
2023-02-16T09:11:24.962Z,33.20
2023-02-16T09:13:51.990Z,33.78
2023-02-16T09:16:22.542Z,33.72
2023-02-16T09:18:50.873Z,33.38
2023-02-16T09:21:23.327Z,34.17
2023-02-16T09:23:51.396Z,33.35
2023-02-16T09:26:20.368Z,33.08
2023-02-16T09:28:49.116Z,33.47
2023-02-16T09:31:28.937Z,31.80
2023-02-16T09:33:58.490Z,32.60
2023-02-16T09:36:25.847Z,32.92
2023-02-16T09:38:54.101Z,32.90
2023-02-16T09:41:48.846Z,33.15
2023-02-16T09:44:25.732Z,32.78
2023-02-16T09:46:54.874Z,33.08
2023-02-16T09:49:32.953Z,31.60
2023-02-16T09:52:08.960Z,32.35
2023-02-16T09:54:45.992Z,32.38
2023-02-16T09:57:38.403Z,33.53
2023-02-16T10:00:18.668Z,32.03
2023-02-16T10:03:10.293Z,30.93
2023-02-16T10:06:14.052Z,32.47
2023-02-16T10:08:47.205Z,31.40
2023-02-16T10:11:41.648Z,31.17
2023-02-16T10:14:43.306Z,31.60
2023-02-16T10:17:31.547Z,31.58
2023-02-16T10:20:16.322Z,31.67
2023-02-16T10:22:53.166Z,31.33
2023-02-16T10:25:37.251Z,31.50
2023-02-16T10:28:36.205Z,31.90
2023-02-16T10:31:11.614Z,31.60
2023-02-16T10:34:11.378Z,31.90
2023-02-16T10:36:49.954Z,31.48
2023-02-16T10:39:24.915Z,30.75
2023-02-16T10:42:03.659Z,31.08
2023-02-16T10:44:43.971Z,31.67
2023-02-16T10:47:36.783Z,31.23
2023-02-16T10:50:07.096Z,31.35
2023-02-16T10:52:38.556Z,31.00
2023-02-16T10:55:05.775Z,31.23
2023-02-16T10:57:33.128Z,30.52
2023-02-16T11:00:03.110Z,31.27
2023-02-16T11:02:41.636Z,31.80
2023-02-16T11:05:27.226Z,30.67
2023-02-16T11:07:57.098Z,31.30
2023-02-16T11:10:37.242Z,31.40
2023-02-16T11:13:04.372Z,30.77
2023-02-16T11:15:32.436Z,31.48
2023-02-16T11:18:08.191Z,31.30
2023-02-16T11:20:47.727Z,31.77
2023-02-16T11:23:17.446Z,31.92
2023-02-16T11:26:17.026Z,31.77
2023-02-16T11:28:48.927Z,31.90
2023-02-16T11:31:18.773Z,30.67
2023-02-16T11:34:06.237Z,31.60
2023-02-16T11:36:47.090Z,32.03
2023-02-16T11:39:14.136Z,32.55
2023-02-16T11:41:52.752Z,31.77
2023-02-16T11:44:25.913Z,32.45
2023-02-16T11:46:53.646Z,33.13
2023-02-16T11:49:38.453Z,32.40
2023-02-16T11:52:29.571Z,33.67
2023-02-16T11:54:58.196Z,33.40
2023-02-16T11:57:29.676Z,32.17
2023-02-16T11:59:57.809Z,32.70
2023-02-16T12:02:57.080Z,29.37
2023-02-16T12:05:45.365Z,30.73
2023-02-16T12:08:37.735Z,28.43
2023-02-16T12:11:28.346Z,28.90
2023-02-16T12:14:07.390Z,32.70
2023-02-16T12:17:00.066Z,33.20
2023-02-16T12:19:32.981Z,32.60
2023-02-16T12:22:29.810Z,38.70
2023-02-16T12:24:59.621Z,38.53
2023-02-16T12:27:41.932Z,33.77
2023-02-16T12:30:11.725Z,32.10
2023-02-16T12:32:47.968Z,31.97
2023-02-16T12:35:36.953Z,33.17
2023-02-16T12:38:06.916Z,32.73
2023-02-16T12:41:07.395Z,31.73
2023-02-16T12:43:52.269Z,33.27
2023-02-16T12:46:44.860Z,30.97
2023-02-16T12:49:29.585Z,29.23
2023-02-16T12:52:17.602Z,30.37
2023-02-16T12:54:55.396Z,31.00
2023-02-16T12:57:26.480Z,31.87
2023-02-16T13:00:15.064Z,30.70
2023-02-16T13:02:51.422Z,36.72
2023-02-16T13:05:34.810Z,38.63
2023-02-16T13:08:26.485Z,34.63
2023-02-16T13:10:53.233Z,38.58
2023-02-16T13:13:25.325Z,35.57
2023-02-16T13:16:17.489Z,40.35
2023-02-16T13:18:52.875Z,42.80
2023-02-16T13:21:59.670Z,41.53
2023-02-16T13:24:55.131Z,43.15
2023-02-16T13:28:07.107Z,37.03
2023-02-16T13:30:48.408Z,37.17
2023-02-16T13:33:37.792Z,36.10
2023-02-16T13:36:23.022Z,36.80
2023-02-16T13:38:50.242Z,35.30
2023-02-16T13:41:43.124Z,37.07
2023-02-16T13:44:21.547Z,38.17
2023-02-16T13:46:52.778Z,37.33
2023-02-16T13:49:46.454Z,38.00
2023-02-16T13:52:34.386Z,38.00
2023-02-16T13:55:04.099Z,36.87
2023-02-16T13:57:50.632Z,37.80
2023-02-16T14:00:30.698Z,39.07
2023-02-16T14:02:58.671Z,36.97
2023-02-16T14:05:33.780Z,37.80
2023-02-16T14:08:11.112Z,38.00
2023-02-16T14:10:56.108Z,38.23
2023-02-16T14:13:30.735Z,39.23
2023-02-16T14:16:17.491Z,36.97
2023-02-16T14:18:44.364Z,36.33
2023-02-16T14:21:37.421Z,37.13
2023-02-16T14:24:06.390Z,35.37
2023-02-16T14:26:52.772Z,35.57
2023-02-16T14:29:24.371Z,36.30
2023-02-16T14:31:59.788Z,35.43
2023-02-16T14:34:53.085Z,33.63
2023-02-16T14:37:35.409Z,36.73
2023-02-16T14:40:40.660Z,35.43
2023-02-16T14:43:34.841Z,35.27
2023-02-16T14:46:20.312Z,40.03
2023-02-16T14:49:02.437Z,38.60
2023-02-16T14:51:59.940Z,34.80
2023-02-16T14:54:54.315Z,33.77
2023-02-16T14:57:31.368Z,33.63
2023-02-16T15:00:21.338Z,33.43
2023-02-16T15:03:18.896Z,33.27
2023-02-16T15:05:56.365Z,33.23
2023-02-16T15:08:34.487Z,33.87
2023-02-16T15:11:35.973Z,34.00
2023-02-16T15:14:15.572Z,33.57
2023-02-16T15:16:42.794Z,32.67
2023-02-16T15:19:23.034Z,32.23
2023-02-16T15:22:20.228Z,30.90
2023-02-16T15:24:58.990Z,31.57
2023-02-16T15:27:26.927Z,31.60
2023-02-16T15:30:23.525Z,31.57
2023-02-16T15:33:06.936Z,31.73
2023-02-16T15:35:44.324Z,31.53
2023-02-16T15:38:20.405Z,31.53
2023-02-16T15:40:51.997Z,31.93
2023-02-16T15:43:28.260Z,31.07
2023-02-16T15:45:57.954Z,32.63
2023-02-16T15:48:38.650Z,30.97
2023-02-16T15:51:21.226Z,31.83
2023-02-16T15:54:05.990Z,32.27
2023-02-16T15:56:32.897Z,32.47
2023-02-16T15:59:17.459Z,33.53
2023-02-16T16:01:46.498Z,33.83
2023-02-16T16:04:32.719Z,33.27
2023-02-16T16:07:00.401Z,33.50
2023-02-16T16:09:35.734Z,34.30
2023-02-16T16:12:11.575Z,34.77
2023-02-16T16:14:57.183Z,34.83
2023-02-16T16:17:37.866Z,33.27
2023-02-16T16:20:29.435Z,34.93
2023-02-16T16:23:04.625Z,33.93
2023-02-16T16:25:38.115Z,35.97
2023-02-16T16:28:08.109Z,35.73
2023-02-16T16:30:37.400Z,35.23
2023-02-16T16:33:12.516Z,35.40
2023-02-16T16:35:43.091Z,35.03
2023-02-16T16:39:09.303Z,35.60
2023-02-16T16:44:46.092Z,39.03
2023-02-16T16:50:11.229Z,46.03
2023-02-16T16:52:51.965Z,42.67
2023-02-16T16:55:22.047Z,39.23
2023-02-16T16:57:52.812Z,47.27
2023-02-16T17:00:22.477Z,41.50
2023-02-16T17:02:49.985Z,42.77
2023-02-16T17:05:18.784Z,41.23
2023-02-16T17:07:59.380Z,40.07
2023-02-16T17:10:35.360Z,39.53
2023-02-16T17:13:03.315Z,41.30
2023-02-16T17:15:44.505Z,39.93
2023-02-16T17:18:18.988Z,40.83
2023-02-16T17:20:50.854Z,39.77
2023-02-16T17:23:20.302Z,40.10
2023-02-16T17:25:47.696Z,40.10
2023-02-16T17:28:18.946Z,37.67
2023-02-16T17:30:50.945Z,38.10
2023-02-16T17:33:18.316Z,38.40
2023-02-16T17:35:48.494Z,36.43
2023-02-16T17:38:24.531Z,37.73
2023-02-16T17:40:54.734Z,38.57
2023-02-16T17:43:23.928Z,37.87
2023-02-16T17:45:53.799Z,36.47
2023-02-16T17:48:30.561Z,38.07
2023-02-16T17:51:07.621Z,38.47
2023-02-16T17:53:42.225Z,38.07
2023-02-16T17:56:17.242Z,37.53
2023-02-16T17:58:44.531Z,38.73
2023-02-16T18:01:14.685Z,38.63
2023-02-16T18:03:46.086Z,38.57
2023-02-16T18:06:28.292Z,37.00
2023-02-16T18:09:05.702Z,37.63
2023-02-16T18:11:34.848Z,40.60
2023-02-16T18:14:01.851Z,45.30
2023-02-16T18:16:29.106Z,41.37
2023-02-16T18:18:58.389Z,41.23
2023-02-16T18:24:08.947Z,42.27
2023-02-16T18:29:34.973Z,44.47
2023-02-16T18:32:05.926Z,45.17
2023-02-16T18:34:41.496Z,44.83
2023-02-16T18:37:15.887Z,44.07
2023-02-16T18:39:45.402Z,44.87
2023-02-16T18:42:27.472Z,45.67
2023-02-16T18:45:07.638Z,43.87
2023-02-16T18:47:37.244Z,41.53
2023-02-16T18:50:09.938Z,49.37
2023-02-16T18:52:44.685Z,41.43
2023-02-16T18:55:18.002Z,59.10
2023-02-16T18:57:54.255Z,65.40
2023-02-16T19:00:29.999Z,49.90
2023-02-16T19:02:57.282Z,44.43
2023-02-16T19:05:51.956Z,45.03
2023-02-16T19:08:20.214Z,39.40
2023-02-16T19:11:00.358Z,39.57
2023-02-16T19:13:27.546Z,37.57
2023-02-16T19:15:57.643Z,38.37
2023-02-16T19:18:29.480Z,35.97
2023-02-16T19:21:05.619Z,38.47
2023-02-16T19:23:47.304Z,40.53
2023-02-16T19:26:19.759Z,37.40
2023-02-16T19:28:53.141Z,36.77
2023-02-16T19:31:36.475Z,35.20
2023-02-16T19:34:08.859Z,33.63
2023-02-16T19:36:45.748Z,32.43
2023-02-16T19:39:24.382Z,32.20
2023-02-16T19:41:53.688Z,30.50
2023-02-16T19:44:23.712Z,30.50
2023-02-16T19:46:58.932Z,29.37
2023-02-16T19:49:26.370Z,29.50
2023-02-16T19:52:02.532Z,29.97
2023-02-16T19:54:38.346Z,27.77
2023-02-16T19:57:06.007Z,27.53
2023-02-16T19:59:36.397Z,27.10
2023-02-16T20:02:06.624Z,26.37
2023-02-16T20:04:51.507Z,25.10
2023-02-16T20:07:24.678Z,26.40
2023-02-16T20:09:51.763Z,27.13
2023-02-16T20:12:19.767Z,27.33
2023-02-16T20:15:30.423Z,27.17
2023-02-16T20:18:07.562Z,27.43
2023-02-16T20:20:43.356Z,27.77
2023-02-16T20:23:14.525Z,30.27
2023-02-16T20:25:44.524Z,33.03
2023-02-16T20:28:11.666Z,28.87
2023-02-16T20:30:41.465Z,31.23
2023-02-16T20:33:08.674Z,37.67
2023-02-16T20:35:35.580Z,32.47
2023-02-16T20:38:02.480Z,32.67
2023-02-16T20:40:29.371Z,32.80
2023-02-16T20:42:56.273Z,32.83
2023-02-16T20:45:23.244Z,35.47
2023-02-16T20:47:50.090Z,35.60
2023-02-16T20:50:17.183Z,31.67
2023-02-16T20:52:44.365Z,33.70
2023-02-16T20:55:11.222Z,36.07
2023-02-16T20:57:38.382Z,35.57
2023-02-16T21:00:13.717Z,36.33
2023-02-16T21:02:40.962Z,35.90
2023-02-16T21:05:11.832Z,36.57
2023-02-16T21:07:38.677Z,40.50
2023-02-16T21:10:08.433Z,35.07
2023-02-16T21:12:35.403Z,36.10
2023-02-16T21:15:02.669Z,35.90
2023-02-16T21:17:29.568Z,35.07
2023-02-16T21:19:56.642Z,36.97
2023-02-16T21:22:24.796Z,34.10
2023-02-16T21:24:52.162Z,35.87
2023-02-16T21:27:19.118Z,36.30
2023-02-16T21:29:46.116Z,34.93
2023-02-16T21:32:13.158Z,37.17
2023-02-16T21:34:40.060Z,36.27
2023-02-16T21:37:07.054Z,36.77
2023-02-16T21:39:52.778Z,36.37
2023-02-16T21:42:19.767Z,34.60
2023-02-16T21:45:06.730Z,34.83
2023-02-16T21:47:52.397Z,34.80
2023-02-16T21:50:19.219Z,34.20
2023-02-16T21:52:46.155Z,34.53
2023-02-16T21:55:31.468Z,36.63
2023-02-16T21:57:58.251Z,34.30
2023-02-16T22:00:25.135Z,33.37
2023-02-16T22:02:51.900Z,32.87
2023-02-16T22:05:18.783Z,30.07
2023-02-16T22:07:45.982Z,33.03
2023-02-16T22:10:12.829Z,32.23
2023-02-16T22:12:39.668Z,33.13
2023-02-16T22:15:07.172Z,34.07
2023-02-16T22:17:34.099Z,31.73
2023-02-16T22:20:01.013Z,32.83
2023-02-16T22:22:27.882Z,30.67
2023-02-16T22:24:54.692Z,30.17
2023-02-16T22:27:21.505Z,30.47
2023-02-16T22:29:48.353Z,27.90
2023-02-16T22:32:15.165Z,29.63
2023-02-16T22:34:42.043Z,28.10
2023-02-16T22:37:08.857Z,28.67
2023-02-16T22:39:35.764Z,27.80
2023-02-16T22:42:05.250Z,29.83
2023-02-16T22:44:32.088Z,29.90
2023-02-16T22:46:59.111Z,29.65
2023-02-16T22:49:26.003Z,30.40
2023-02-16T22:51:52.817Z,29.00
2023-02-16T22:54:20.625Z,29.23
2023-02-16T22:56:47.411Z,30.15
2023-02-16T22:59:14.486Z,29.90
2023-02-16T23:01:41.402Z,29.70
2023-02-16T23:04:12.783Z,28.90
2023-02-16T23:06:39.907Z,28.92
2023-02-16T23:09:17.555Z,28.88
2023-02-16T23:11:44.853Z,29.77
2023-02-16T23:14:18.154Z,28.70
2023-02-16T23:16:47.014Z,28.92
2023-02-16T23:19:17.160Z,30.77
2023-02-16T23:21:44.544Z,30.50
2023-02-16T23:24:17.849Z,30.77
2023-02-16T23:26:45.084Z,33.90
2023-02-16T23:29:12.538Z,32.40
2023-02-16T23:31:41.472Z,33.92
2023-02-16T23:34:09.685Z,33.72
2023-02-16T23:36:37.523Z,32.55
2023-02-16T23:39:10.962Z,33.70
2023-02-16T23:41:37.908Z,34.53
2023-02-16T23:44:06.091Z,34.22
2023-02-16T23:46:33.259Z,33.65
2023-02-16T23:49:00.316Z,31.75
2023-02-16T23:51:27.904Z,30.75
2023-02-16T23:53:55.083Z,31.98
2023-02-16T23:56:24.601Z,30.77
2023-02-16T23:58:52.464Z,29.95
